Terminal Aerodrome Forecast
Issued by NWS Omaha/Valley, NE

Home | Current Version | Previous Version | Text Only | Print | Product List | Glossary Off
Versions: 1 2 3 4 5 6 7 8 9 10 11 12 13 14 15 16 17 18 19 20 21 22 23 24 25 26 27 28 29 30 31 32 33 34 35 36

530
FTUS43 KOAX 180839 AAA
TAFOFK
TAF AMD
KOFK 180839Z 1809/1906 36014G21KT 3SM -SN OVC015
      TEMPO 1809/1812 1SM -SN OVC007
     FM181300 33015G25KT 6SM -SN OVC010
      TEMPO 1813/1816 2SM -SN
     FM181800 34018G28KT P6SM OVC015=

USA.gov is the U.S. government's official web portal to all federal, state and local government web resources and services.